sensor_id;sensor_type;location;lat;lon;timestamp;P1;durP1;ratioP1;P2;durP2;ratioP2
58978;SDS011;44763;50.464;30.612;2024-01-30T00:00:08;21.90;;;16.70;;
58978;SDS011;44763;50.464;30.612;2024-01-30T00:02:12;18.00;;;14.80;;
58978;SDS011;44763;50.464;30.612;2024-01-30T00:04:14;18.10;;;14.10;;
58978;SDS011;44763;50.464;30.612;2024-01-30T00:06:19;19.00;;;14.30;;
58978;SDS011;44763;50.464;30.612;2024-01-30T00:08:22;22.30;;;14.40;;
58978;SDS011;44763;50.464;30.612;2024-01-30T00:10:24;17.40;;;13.30;;
58978;SDS011;44763;50.464;30.612;2024-01-30T00:12:26;22.30;;;14.60;;
58978;SDS011;44763;50.464;30.612;2024-01-30T00:14:28;20.80;;;14.80;;
58978;SDS011;44763;50.464;30.612;2024-01-30T00:16:30;19.20;;;13.90;;
58978;SDS011;44763;50.464;30.612;2024-01-30T00:18:32;19.10;;;13.90;;
58978;SDS011;44763;50.464;30.612;2024-01-30T00:20:35;20.40;;;14.60;;
58978;SDS011;44763;50.464;30.612;2024-01-30T00:22:36;17.10;;;12.70;;
58978;SDS011;44763;50.464;30.612;2024-01-30T00:24:38;17.10;;;12.10;;
58978;SDS011;44763;50.464;30.612;2024-01-30T00:26:40;20.50;;;12.30;;
58978;SDS011;44763;50.464;30.612;2024-01-30T00:28:44;15.40;;;11.90;;
58978;SDS011;44763;50.464;30.612;2024-01-30T00:30:46;15.00;;;11.10;;
58978;SDS011;44763;50.464;30.612;2024-01-30T00:32:48;17.20;;;12.70;;
58978;SDS011;44763;50.464;30.612;2024-01-30T00:34:50;16.50;;;12.80;;
58978;SDS011;44763;50.464;30.612;2024-01-30T00:36:52;14.80;;;11.80;;
58978;SDS011;44763;50.464;30.612;2024-01-30T00:38:53;13.30;;;10.20;;
58978;SDS011;44763;50.464;30.612;2024-01-30T00:40:55;13.90;;;10.00;;
58978;SDS011;44763;50.464;30.612;2024-01-30T00:42:57;12.60;;;9.20;;
58978;SDS011;44763;50.464;30.612;2024-01-30T00:44:59;14.50;;;9.80;;
58978;SDS011;44763;50.464;30.612;2024-01-30T00:47:00;11.80;;;9.70;;
58978;SDS011;44763;50.464;30.612;2024-01-30T00:49:02;12.80;;;9.20;;
58978;SDS011;44763;50.464;30.612;2024-01-30T00:51:07;13.70;;;9.10;;
58978;SDS011;44763;50.464;30.612;2024-01-30T00:53:09;14.50;;;10.60;;
58978;SDS011;44763;50.464;30.612;2024-01-30T00:55:11;12.40;;;9.10;;
58978;SDS011;44763;50.464;30.612;2024-01-30T00:57:13;14.10;;;9.50;;
58978;SDS011;44763;50.464;30.612;2024-01-30T00:59:16;12.00;;;9.10;;
58978;SDS011;44763;50.464;30.612;2024-01-30T01:01:18;11.80;;;9.90;;
58978;SDS011;44763;50.464;30.612;2024-01-30T01:03:21;15.20;;;11.10;;
58978;SDS011;44763;50.464;30.612;2024-01-30T01:05:23;15.00;;;10.60;;
58978;SDS011;44763;50.464;30.612;2024-01-30T01:07:26;12.60;;;10.30;;
58978;SDS011;44763;50.464;30.612;2024-01-30T01:09:28;13.80;;;9.70;;
58978;SDS011;44763;50.464;30.612;2024-01-30T01:11:30;16.30;;;11.80;;
58978;SDS011;44763;50.464;30.612;2024-01-30T01:13:33;14.00;;;10.40;;
58978;SDS011;44763;50.464;30.612;2024-01-30T01:15:34;12.70;;;10.50;;
58978;SDS011;44763;50.464;30.612;2024-01-30T01:17:38;16.20;;;11.70;;
58978;SDS011;44763;50.464;30.612;2024-01-30T01:19:40;16.60;;;11.60;;
58978;SDS011;44763;50.464;30.612;2024-01-30T01:21:43;15.40;;;12.80;;
58978;SDS011;44763;50.464;30.612;2024-01-30T01:23:45;15.50;;;11.90;;
58978;SDS011;44763;50.464;30.612;2024-01-30T01:25:46;14.90;;;11.80;;
58978;SDS011;44763;50.464;30.612;2024-01-30T01:27:48;14.90;;;11.20;;
58978;SDS011;44763;50.464;30.612;2024-01-30T01:29:54;15.50;;;11.80;;
58978;SDS011;44763;50.464;30.612;2024-01-30T01:31:55;17.60;;;12.40;;
58978;SDS011;44763;50.464;30.612;2024-01-30T01:33:58;16.90;;;11.70;;
58978;SDS011;44763;50.464;30.612;2024-01-30T01:36:00;20.50;;;13.20;;
58978;SDS011;44763;50.464;30.612;2024-01-30T01:38:04;14.60;;;12.40;;
58978;SDS011;44763;50.464;30.612;2024-01-30T01:40:06;15.40;;;12.00;;
58978;SDS011;44763;50.464;30.612;2024-01-30T01:42:09;14.50;;;12.30;;
58978;SDS011;44763;50.464;30.612;2024-01-30T01:44:11;16.80;;;12.20;;
58978;SDS011;44763;50.464;30.612;2024-01-30T01:46:13;14.30;;;11.90;;
58978;SDS011;44763;50.464;30.612;2024-01-30T01:48:15;15.10;;;12.40;;
58978;SDS011;44763;50.464;30.612;2024-01-30T01:50:18;16.40;;;12.70;;
58978;SDS011;44763;50.464;30.612;2024-01-30T01:52:21;16.20;;;12.00;;
58978;SDS011;44763;50.464;30.612;2024-01-30T01:54:24;15.90;;;12.10;;
58978;SDS011;44763;50.464;30.612;2024-01-30T01:56:28;13.00;;;10.90;;
58978;SDS011;44763;50.464;30.612;2024-01-30T01:58:32;15.30;;;10.90;;
58978;SDS011;44763;50.464;30.612;2024-01-30T02:00:34;13.80;;;11.80;;
58978;SDS011;44763;50.464;30.612;2024-01-30T02:04:34;14.40;;;11.90;;
58978;SDS011;44763;50.464;30.612;2024-01-30T02:06:37;13.20;;;10.70;;
58978;SDS011;44763;50.464;30.612;2024-01-30T02:08:39;14.30;;;10.60;;
58978;SDS011;44763;50.464;30.612;2024-01-30T02:10:41;14.60;;;11.40;;
58978;SDS011;44763;50.464;30.612;2024-01-30T02:12:43;11.60;;;9.90;;
58978;SDS011;44763;50.464;30.612;2024-01-30T02:14:45;14.30;;;10.80;;
58978;SDS011;44763;50.464;30.612;2024-01-30T02:16:47;15.20;;;11.70;;
58978;SDS011;44763;50.464;30.612;2024-01-30T02:18:50;16.00;;;11.30;;
58978;SDS011;44763;50.464;30.612;2024-01-30T02:20:53;13.10;;;10.70;;
58978;SDS011;44763;50.464;30.612;2024-01-30T02:22:56;16.30;;;12.20;;
58978;SDS011;44763;50.464;30.612;2024-01-30T02:25:00;17.00;;;12.30;;
58978;SDS011;44763;50.464;30.612;2024-01-30T02:27:02;19.30;;;14.10;;
58978;SDS011;44763;50.464;30.612;2024-01-30T02:29:04;12.70;;;10.70;;
58978;SDS011;44763;50.464;30.612;2024-01-30T02:31:05;16.20;;;11.50;;
58978;SDS011;44763;50.464;30.612;2024-01-30T02:33:08;15.30;;;12.00;;
58978;SDS011;44763;50.464;30.612;2024-01-30T02:35:10;16.70;;;11.90;;
58978;SDS011;44763;50.464;30.612;2024-01-30T02:37:12;15.10;;;11.50;;
58978;SDS011;44763;50.464;30.612;2024-01-30T02:39:14;14.40;;;11.30;;
58978;SDS011;44763;50.464;30.612;2024-01-30T02:41:16;16.70;;;10.70;;
58978;SDS011;44763;50.464;30.612;2024-01-30T02:43:18;12.80;;;10.20;;
58978;SDS011;44763;50.464;30.612;2024-01-30T02:45:20;14.50;;;10.70;;
58978;SDS011;44763;50.464;30.612;2024-01-30T02:47:22;15.50;;;11.60;;
58978;SDS011;44763;50.464;30.612;2024-01-30T02:49:24;13.70;;;11.20;;
58978;SDS011;44763;50.464;30.612;2024-01-30T02:51:26;15.60;;;12.80;;
58978;SDS011;44763;50.464;30.612;2024-01-30T02:53:28;16.10;;;11.70;;
58978;SDS011;44763;50.464;30.612;2024-01-30T02:55:29;14.60;;;11.70;;
58978;SDS011;44763;50.464;30.612;2024-01-30T02:57:31;15.40;;;12.70;;
58978;SDS011;44763;50.464;30.612;2024-01-30T02:59:33;16.80;;;12.70;;
58978;SDS011;44763;50.464;30.612;2024-01-30T03:01:43;16.70;;;13.40;;
58978;SDS011;44763;50.464;30.612;2024-01-30T03:03:46;14.60;;;11.70;;
58978;SDS011;44763;50.464;30.612;2024-01-30T03:05:48;15.90;;;11.10;;
58978;SDS011;44763;50.464;30.612;2024-01-30T03:07:50;17.80;;;12.40;;
58978;SDS011;44763;50.464;30.612;2024-01-30T03:09:52;13.90;;;11.80;;
58978;SDS011;44763;50.464;30.612;2024-01-30T03:11:54;13.90;;;12.20;;
58978;SDS011;44763;50.464;30.612;2024-01-30T03:13:57;16.60;;;12.00;;
58978;SDS011;44763;50.464;30.612;2024-01-30T03:15:58;18.70;;;13.10;;
58978;SDS011;44763;50.464;30.612;2024-01-30T03:18:01;18.90;;;13.10;;
58978;SDS011;44763;50.464;30.612;2024-01-30T03:20:05;17.00;;;13.20;;
58978;SDS011;44763;50.464;30.612;2024-01-30T03:22:08;17.20;;;13.70;;
58978;SDS011;44763;50.464;30.612;2024-01-30T03:24:09;16.60;;;12.20;;
58978;SDS011;44763;50.464;30.612;2024-01-30T03:26:12;14.80;;;11.80;;
58978;SDS011;44763;50.464;30.612;2024-01-30T03:28:14;17.60;;;12.50;;
58978;SDS011;44763;50.464;30.612;2024-01-30T03:30:16;20.10;;;12.60;;
58978;SDS011;44763;50.464;30.612;2024-01-30T03:32:19;18.50;;;13.00;;
58978;SDS011;44763;50.464;30.612;2024-01-30T03:34:21;14.60;;;12.00;;
58978;SDS011;44763;50.464;30.612;2024-01-30T03:36:23;16.70;;;13.20;;
58978;SDS011;44763;50.464;30.612;2024-01-30T03:38:25;12.70;;;11.30;;
58978;SDS011;44763;50.464;30.612;2024-01-30T03:40:27;16.50;;;13.40;;
58978;SDS011;44763;50.464;30.612;2024-01-30T03:42:28;15.60;;;12.80;;
58978;SDS011;44763;50.464;30.612;2024-01-30T03:44:30;17.40;;;12.10;;
58978;SDS011;44763;50.464;30.612;2024-01-30T03:46:32;13.30;;;11.40;;
58978;SDS011;44763;50.464;30.612;2024-01-30T03:48:36;14.40;;;11.30;;
58978;SDS011;44763;50.464;30.612;2024-01-30T03:50:38;16.00;;;12.90;;
58978;SDS011;44763;50.464;30.612;2024-01-30T03:52:39;15.00;;;12.50;;
58978;SDS011;44763;50.464;30.612;2024-01-30T03:54:41;16.20;;;12.20;;
58978;SDS011;44763;50.464;30.612;2024-01-30T03:56:43;15.60;;;12.20;;
58978;SDS011;44763;50.464;30.612;2024-01-30T03:58:45;15.10;;;11.30;;
58978;SDS011;44763;50.464;30.612;2024-01-30T04:00:47;15.20;;;11.30;;
58978;SDS011;44763;50.464;30.612;2024-01-30T04:02:49;15.30;;;11.50;;
58978;SDS011;44763;50.464;30.612;2024-01-30T04:04:52;16.10;;;12.20;;
58978;SDS011;44763;50.464;30.612;2024-01-30T04:06:54;13.00;;;10.80;;
58978;SDS011;44763;50.464;30.612;2024-01-30T04:08:56;12.90;;;10.80;;
58978;SDS011;44763;50.464;30.612;2024-01-30T04:10:58;15.70;;;12.10;;
58978;SDS011;44763;50.464;30.612;2024-01-30T04:13:00;15.80;;;11.50;;
58978;SDS011;44763;50.464;30.612;2024-01-30T04:15:02;14.90;;;11.80;;
58978;SDS011;44763;50.464;30.612;2024-01-30T04:17:05;12.40;;;10.50;;
58978;SDS011;44763;50.464;30.612;2024-01-30T04:19:06;12.80;;;10.40;;
58978;SDS011;44763;50.464;30.612;2024-01-30T04:21:08;15.40;;;11.00;;
58978;SDS011;44763;50.464;30.612;2024-01-30T04:23:10;14.60;;;11.60;;
58978;SDS011;44763;50.464;30.612;2024-01-30T04:25:12;11.70;;;10.30;;
58978;SDS011;44763;50.464;30.612;2024-01-30T04:27:15;13.70;;;11.40;;
58978;SDS011;44763;50.464;30.612;2024-01-30T04:29:17;14.30;;;11.90;;
58978;SDS011;44763;50.464;30.612;2024-01-30T04:31:19;15.00;;;11.30;;
58978;SDS011;44763;50.464;30.612;2024-01-30T04:33:21;17.10;;;12.70;;
58978;SDS011;44763;50.464;30.612;2024-01-30T04:35:23;14.00;;;11.60;;
58978;SDS011;44763;50.464;30.612;2024-01-30T04:37:26;17.00;;;12.50;;
58978;SDS011;44763;50.464;30.612;2024-01-30T04:39:29;13.60;;;11.20;;
58978;SDS011;44763;50.464;30.612;2024-01-30T04:41:30;15.90;;;11.80;;
58978;SDS011;44763;50.464;30.612;2024-01-30T04:43:34;14.30;;;11.20;;
58978;SDS011;44763;50.464;30.612;2024-01-30T04:45:35;13.00;;;10.40;;
58978;SDS011;44763;50.464;30.612;2024-01-30T04:47:37;13.10;;;10.40;;
58978;SDS011;44763;50.464;30.612;2024-01-30T04:49:40;14.50;;;11.80;;
58978;SDS011;44763;50.464;30.612;2024-01-30T04:51:42;13.50;;;11.30;;
58978;SDS011;44763;50.464;30.612;2024-01-30T04:53:44;17.10;;;12.70;;
58978;SDS011;44763;50.464;30.612;2024-01-30T04:55:48;13.70;;;12.20;;
58978;SDS011;44763;50.464;30.612;2024-01-30T04:57:50;15.00;;;11.70;;
58978;SDS011;44763;50.464;30.612;2024-01-30T04:59:52;16.40;;;13.30;;
58978;SDS011;44763;50.464;30.612;2024-01-30T05:01:54;15.70;;;12.70;;
58978;SDS011;44763;50.464;30.612;2024-01-30T05:03:58;17.40;;;12.50;;
58978;SDS011;44763;50.464;30.612;2024-01-30T05:06:00;15.20;;;12.30;;
58978;SDS011;44763;50.464;30.612;2024-01-30T05:08:02;16.30;;;12.80;;
58978;SDS011;44763;50.464;30.612;2024-01-30T05:10:04;17.20;;;12.80;;
58978;SDS011;44763;50.464;30.612;2024-01-30T05:12:07;15.60;;;12.00;;
58978;SDS011;44763;50.464;30.612;2024-01-30T05:14:09;16.60;;;14.10;;
58978;SDS011;44763;50.464;30.612;2024-01-30T05:16:12;15.70;;;12.50;;
58978;SDS011;44763;50.464;30.612;2024-01-30T05:18:14;15.30;;;13.00;;
58978;SDS011;44763;50.464;30.612;2024-01-30T05:20:17;17.20;;;13.30;;
58978;SDS011;44763;50.464;30.612;2024-01-30T05:22:20;19.70;;;15.30;;
58978;SDS011;44763;50.464;30.612;2024-01-30T05:24:22;31.90;;;16.10;;
58978;SDS011;44763;50.464;30.612;2024-01-30T05:26:26;20.60;;;14.90;;
58978;SDS011;44763;50.464;30.612;2024-01-30T05:28:29;22.10;;;14.70;;
58978;SDS011;44763;50.464;30.612;2024-01-30T05:30:31;21.70;;;13.10;;
58978;SDS011;44763;50.464;30.612;2024-01-30T05:32:33;32.80;;;16.00;;
58978;SDS011;44763;50.464;30.612;2024-01-30T05:34:36;33.60;;;15.10;;
58978;SDS011;44763;50.464;30.612;2024-01-30T05:36:38;16.40;;;13.30;;
58978;SDS011;44763;50.464;30.612;2024-01-30T05:38:40;22.60;;;14.40;;
58978;SDS011;44763;50.464;30.612;2024-01-30T05:40:42;19.10;;;14.10;;
58978;SDS011;44763;50.464;30.612;2024-01-30T05:42:44;21.20;;;15.00;;
58978;SDS011;44763;50.464;30.612;2024-01-30T05:44:45;18.40;;;14.80;;
58978;SDS011;44763;50.464;30.612;2024-01-30T05:46:47;21.70;;;16.40;;
58978;SDS011;44763;50.464;30.612;2024-01-30T05:48:49;22.60;;;17.50;;
58978;SDS011;44763;50.464;30.612;2024-01-30T05:50:51;21.30;;;16.90;;
58978;SDS011;44763;50.464;30.612;2024-01-30T05:52:54;19.10;;;15.90;;
58978;SDS011;44763;50.464;30.612;2024-01-30T05:54:56;21.70;;;15.90;;
58978;SDS011;44763;50.464;30.612;2024-01-30T05:56:58;20.60;;;16.80;;
58978;SDS011;44763;50.464;30.612;2024-01-30T05:58:59;21.10;;;16.20;;
58978;SDS011;44763;50.464;30.612;2024-01-30T06:01:01;19.50;;;15.40;;
58978;SDS011;44763;50.464;30.612;2024-01-30T06:03:04;17.70;;;14.20;;
58978;SDS011;44763;50.464;30.612;2024-01-30T06:05:06;18.20;;;15.30;;
58978;SDS011;44763;50.464;30.612;2024-01-30T06:07:09;22.60;;;15.90;;
58978;SDS011;44763;50.464;30.612;2024-01-30T06:09:10;25.20;;;17.40;;
58978;SDS011;44763;50.464;30.612;2024-01-30T06:11:14;24.90;;;17.50;;
58978;SDS011;44763;50.464;30.612;2024-01-30T06:13:16;32.00;;;18.30;;
58978;SDS011;44763;50.464;30.612;2024-01-30T06:15:18;23.60;;;16.70;;
58978;SDS011;44763;50.464;30.612;2024-01-30T06:17:19;20.80;;;17.20;;
58978;SDS011;44763;50.464;30.612;2024-01-30T06:19:21;21.10;;;16.40;;
58978;SDS011;44763;50.464;30.612;2024-01-30T06:21:23;24.10;;;19.10;;
58978;SDS011;44763;50.464;30.612;2024-01-30T06:23:25;24.40;;;18.10;;
58978;SDS011;44763;50.464;30.612;2024-01-30T06:25:27;25.20;;;16.50;;
58978;SDS011;44763;50.464;30.612;2024-01-30T06:27:29;24.00;;;17.10;;
58978;SDS011;44763;50.464;30.612;2024-01-30T06:29:31;17.90;;;13.50;;
58978;SDS011;44763;50.464;30.612;2024-01-30T06:31:39;23.80;;;16.30;;
58978;SDS011;44763;50.464;30.612;2024-01-30T06:33:42;23.50;;;18.00;;
58978;SDS011;44763;50.464;30.612;2024-01-30T06:35:44;25.20;;;18.10;;
58978;SDS011;44763;50.464;30.612;2024-01-30T06:37:47;24.10;;;16.80;;
58978;SDS011;44763;50.464;30.612;2024-01-30T06:39:48;25.60;;;16.80;;
58978;SDS011;44763;50.464;30.612;2024-01-30T06:41:50;20.10;;;16.90;;
58978;SDS011;44763;50.464;30.612;2024-01-30T06:43:52;21.00;;;15.00;;
58978;SDS011;44763;50.464;30.612;2024-01-30T06:45:54;24.90;;;18.00;;
58978;SDS011;44763;50.464;30.612;2024-01-30T06:47:55;21.50;;;15.90;;
58978;SDS011;44763;50.464;30.612;2024-01-30T06:49:57;20.70;;;14.00;;
58978;SDS011;44763;50.464;30.612;2024-01-30T06:52:00;21.60;;;16.30;;
58978;SDS011;44763;50.464;30.612;2024-01-30T06:54:03;20.10;;;15.90;;
58978;SDS011;44763;50.464;30.612;2024-01-30T06:56:05;24.80;;;15.00;;
58978;SDS011;44763;50.464;30.612;2024-01-30T06:58:07;22.70;;;16.60;;
58978;SDS011;44763;50.464;30.612;2024-01-30T07:00:09;29.30;;;17.80;;
58978;SDS011;44763;50.464;30.612;2024-01-30T07:02:12;21.00;;;16.50;;
58978;SDS011;44763;50.464;30.612;2024-01-30T07:04:14;23.50;;;18.30;;
58978;SDS011;44763;50.464;30.612;2024-01-30T07:06:17;20.20;;;15.80;;
58978;SDS011;44763;50.464;30.612;2024-01-30T07:08:21;22.90;;;14.80;;
58978;SDS011;44763;50.464;30.612;2024-01-30T07:10:24;22.50;;;16.50;;
58978;SDS011;44763;50.464;30.612;2024-01-30T07:12:28;21.60;;;16.50;;
58978;SDS011;44763;50.464;30.612;2024-01-30T07:14:30;23.40;;;17.40;;
58978;SDS011;44763;50.464;30.612;2024-01-30T07:16:31;22.60;;;17.00;;
58978;SDS011;44763;50.464;30.612;2024-01-30T07:18:35;20.50;;;15.80;;
58978;SDS011;44763;50.464;30.612;2024-01-30T07:20:39;23.30;;;18.50;;
58978;SDS011;44763;50.464;30.612;2024-01-30T07:22:48;26.00;;;18.20;;
58978;SDS011;44763;50.464;30.612;2024-01-30T07:24:50;25.30;;;17.90;;
58978;SDS011;44763;50.464;30.612;2024-01-30T07:26:53;28.20;;;19.90;;
58978;SDS011;44763;50.464;30.612;2024-01-30T07:28:57;26.90;;;19.70;;
58978;SDS011;44763;50.464;30.612;2024-01-30T07:30:59;25.20;;;17.50;;
58978;SDS011;44763;50.464;30.612;2024-01-30T07:33:01;23.30;;;15.80;;
58978;SDS011;44763;50.464;30.612;2024-01-30T07:35:03;27.10;;;17.40;;
58978;SDS011;44763;50.464;30.612;2024-01-30T07:37:09;23.80;;;16.70;;
58978;SDS011;44763;50.464;30.612;2024-01-30T07:39:12;25.70;;;17.20;;
58978;SDS011;44763;50.464;30.612;2024-01-30T07:41:14;27.50;;;17.90;;
58978;SDS011;44763;50.464;30.612;2024-01-30T07:43:15;25.70;;;18.30;;
58978;SDS011;44763;50.464;30.612;2024-01-30T07:45:17;21.70;;;16.80;;
58978;SDS011;44763;50.464;30.612;2024-01-30T07:47:23;23.90;;;16.70;;
58978;SDS011;44763;50.464;30.612;2024-01-30T07:49:25;23.80;;;15.10;;
58978;SDS011;44763;50.464;30.612;2024-01-30T07:51:28;24.10;;;15.40;;
58978;SDS011;44763;50.464;30.612;2024-01-30T07:53:30;22.10;;;13.90;;
58978;SDS011;44763;50.464;30.612;2024-01-30T07:55:32;21.90;;;14.20;;
58978;SDS011;44763;50.464;30.612;2024-01-30T07:57:34;22.20;;;14.90;;
58978;SDS011;44763;50.464;30.612;2024-01-30T07:59:37;18.50;;;13.80;;
58978;SDS011;44763;50.464;30.612;2024-01-30T08:01:39;20.60;;;13.10;;
58978;SDS011;44763;50.464;30.612;2024-01-30T08:03:41;18.50;;;13.50;;
58978;SDS011;44763;50.464;30.612;2024-01-30T08:05:45;21.00;;;14.10;;
58978;SDS011;44763;50.464;30.612;2024-01-30T08:07:49;18.30;;;13.60;;
58978;SDS011;44763;50.464;30.612;2024-01-30T08:09:51;19.90;;;14.80;;
58978;SDS011;44763;50.464;30.612;2024-01-30T08:11:53;18.10;;;14.20;;
58978;SDS011;44763;50.464;30.612;2024-01-30T08:13:55;21.90;;;14.20;;
58978;SDS011;44763;50.464;30.612;2024-01-30T08:15:57;23.10;;;15.80;;
58978;SDS011;44763;50.464;30.612;2024-01-30T08:17:59;23.10;;;14.40;;
58978;SDS011;44763;50.464;30.612;2024-01-30T08:20:01;21.40;;;13.60;;
58978;SDS011;44763;50.464;30.612;2024-01-30T08:22:03;19.70;;;13.80;;
58978;SDS011;44763;50.464;30.612;2024-01-30T08:24:05;19.50;;;13.80;;
58978;SDS011;44763;50.464;30.612;2024-01-30T08:26:08;18.20;;;13.80;;
58978;SDS011;44763;50.464;30.612;2024-01-30T08:28:10;15.40;;;11.50;;
58978;SDS011;44763;50.464;30.612;2024-01-30T08:30:12;14.10;;;12.00;;
58978;SDS011;44763;50.464;30.612;2024-01-30T08:32:14;17.20;;;13.60;;
58978;SDS011;44763;50.464;30.612;2024-01-30T08:34:16;20.30;;;14.00;;
58978;SDS011;44763;50.464;30.612;2024-01-30T08:36:18;20.00;;;14.40;;
58978;SDS011;44763;50.464;30.612;2024-01-30T08:38:21;19.90;;;14.40;;
58978;SDS011;44763;50.464;30.612;2024-01-30T08:40:23;22.30;;;14.60;;
58978;SDS011;44763;50.464;30.612;2024-01-30T08:42:25;20.30;;;15.30;;
58978;SDS011;44763;50.464;30.612;2024-01-30T08:44:27;20.60;;;14.80;;
58978;SDS011;44763;50.464;30.612;2024-01-30T08:46:29;20.20;;;14.30;;
58978;SDS011;44763;50.464;30.612;2024-01-30T08:48:32;16.90;;;13.10;;
58978;SDS011;44763;50.464;30.612;2024-01-30T08:50:34;20.00;;;15.20;;
58978;SDS011;44763;50.464;30.612;2024-01-30T08:52:36;18.90;;;13.30;;
58978;SDS011;44763;50.464;30.612;2024-01-30T08:54:38;19.00;;;14.80;;
58978;SDS011;44763;50.464;30.612;2024-01-30T08:56:40;18.90;;;12.80;;
58978;SDS011;44763;50.464;30.612;2024-01-30T08:58:41;18.90;;;13.90;;
58978;SDS011;44763;50.464;30.612;2024-01-30T09:00:43;17.00;;;13.30;;
58978;SDS011;44763;50.464;30.612;2024-01-30T09:02:45;19.80;;;15.10;;
58978;SDS011;44763;50.464;30.612;2024-01-30T09:04:47;19.40;;;14.60;;
58978;SDS011;44763;50.464;30.612;2024-01-30T09:06:49;18.70;;;13.90;;
58978;SDS011;44763;50.464;30.612;2024-01-30T09:08:51;17.10;;;14.00;;
58978;SDS011;44763;50.464;30.612;2024-01-30T09:10:55;18.90;;;14.10;;
58978;SDS011;44763;50.464;30.612;2024-01-30T09:12:59;19.30;;;14.30;;
58978;SDS011;44763;50.464;30.612;2024-01-30T09:15:01;21.90;;;15.80;;
58978;SDS011;44763;50.464;30.612;2024-01-30T09:17:03;19.30;;;14.50;;
58978;SDS011;44763;50.464;30.612;2024-01-30T09:19:05;17.40;;;14.00;;
58978;SDS011;44763;50.464;30.612;2024-01-30T09:21:07;21.30;;;15.30;;
58978;SDS011;44763;50.464;30.612;2024-01-30T09:23:09;22.10;;;15.40;;
58978;SDS011;44763;50.464;30.612;2024-01-30T09:25:11;22.30;;;16.40;;
58978;SDS011;44763;50.464;30.612;2024-01-30T09:27:13;18.60;;;13.50;;
58978;SDS011;44763;50.464;30.612;2024-01-30T09:29:14;24.50;;;16.90;;
58978;SDS011;44763;50.464;30.612;2024-01-30T09:31:16;21.90;;;15.40;;
58978;SDS011;44763;50.464;30.612;2024-01-30T09:33:21;19.50;;;14.50;;
58978;SDS011;44763;50.464;30.612;2024-01-30T09:35:23;19.80;;;15.10;;
58978;SDS011;44763;50.464;30.612;2024-01-30T09:37:25;23.00;;;14.90;;
58978;SDS011;44763;50.464;30.612;2024-01-30T09:39:28;24.20;;;15.30;;
58978;SDS011;44763;50.464;30.612;2024-01-30T09:41:31;16.80;;;13.60;;
58978;SDS011;44763;50.464;30.612;2024-01-30T09:43:34;17.80;;;14.40;;
58978;SDS011;44763;50.464;30.612;2024-01-30T09:45:36;20.60;;;15.30;;
58978;SDS011;44763;50.464;30.612;2024-01-30T09:47:40;19.30;;;14.80;;
58978;SDS011;44763;50.464;30.612;2024-01-30T09:49:46;21.60;;;15.60;;
58978;SDS011;44763;50.464;30.612;2024-01-30T09:51:49;20.60;;;14.90;;
58978;SDS011;44763;50.464;30.612;2024-01-30T09:53:51;21.60;;;15.10;;
58978;SDS011;44763;50.464;30.612;2024-01-30T09:55:55;20.20;;;14.70;;
58978;SDS011;44763;50.464;30.612;2024-01-30T09:57:58;16.80;;;13.40;;
58978;SDS011;44763;50.464;30.612;2024-01-30T10:00:01;17.10;;;13.10;;
58978;SDS011;44763;50.464;30.612;2024-01-30T10:02:12;16.90;;;13.70;;
58978;SDS011;44763;50.464;30.612;2024-01-30T10:04:14;20.10;;;13.50;;
58978;SDS011;44763;50.464;30.612;2024-01-30T10:06:16;18.00;;;14.50;;
58978;SDS011;44763;50.464;30.612;2024-01-30T10:08:22;20.70;;;14.10;;
58978;SDS011;44763;50.464;30.612;2024-01-30T10:10:24;14.50;;;11.80;;
58978;SDS011;44763;50.464;30.612;2024-01-30T10:12:26;19.70;;;13.70;;
58978;SDS011;44763;50.464;30.612;2024-01-30T10:14:31;15.30;;;12.80;;
58978;SDS011;44763;50.464;30.612;2024-01-30T10:16:36;20.20;;;14.70;;
58978;SDS011;44763;50.464;30.612;2024-01-30T10:18:38;17.20;;;13.60;;
58978;SDS011;44763;50.464;30.612;2024-01-30T10:20:43;20.40;;;14.60;;
58978;SDS011;44763;50.464;30.612;2024-01-30T10:22:45;21.10;;;15.40;;
58978;SDS011;44763;50.464;30.612;2024-01-30T10:24:48;20.60;;;14.00;;
58978;SDS011;44763;50.464;30.612;2024-01-30T10:26:50;22.20;;;14.00;;
58978;SDS011;44763;50.464;30.612;2024-01-30T10:28:52;17.00;;;13.10;;
58978;SDS011;44763;50.464;30.612;2024-01-30T10:30:57;14.90;;;12.50;;
58978;SDS011;44763;50.464;30.612;2024-01-30T10:33:06;15.50;;;12.20;;
58978;SDS011;44763;50.464;30.612;2024-01-30T10:35:08;16.20;;;13.00;;
58978;SDS011;44763;50.464;30.612;2024-01-30T10:37:11;18.20;;;13.50;;
58978;SDS011;44763;50.464;30.612;2024-01-30T10:39:17;14.70;;;12.80;;
58978;SDS011;44763;50.464;30.612;2024-01-30T10:41:27;21.00;;;13.20;;
58978;SDS011;44763;50.464;30.612;2024-01-30T10:43:35;17.00;;;12.30;;
58978;SDS011;44763;50.464;30.612;2024-01-30T10:45:41;14.30;;;11.20;;
58978;SDS011;44763;50.464;30.612;2024-01-30T10:49:56;18.20;;;13.40;;
58978;SDS011;44763;50.464;30.612;2024-01-30T10:51:59;16.20;;;11.90;;
58978;SDS011;44763;50.464;30.612;2024-01-30T10:54:01;15.10;;;12.70;;
58978;SDS011;44763;50.464;30.612;2024-01-30T10:56:06;16.00;;;13.50;;
58978;SDS011;44763;50.464;30.612;2024-01-30T10:58:09;15.10;;;12.00;;
58978;SDS011;44763;50.464;30.612;2024-01-30T11:00:13;20.20;;;13.00;;
58978;SDS011;44763;50.464;30.612;2024-01-30T11:02:17;19.10;;;13.00;;
58978;SDS011;44763;50.464;30.612;2024-01-30T11:04:19;16.50;;;12.90;;
58978;SDS011;44763;50.464;30.612;2024-01-30T11:06:22;23.40;;;13.30;;
58978;SDS011;44763;50.464;30.612;2024-01-30T11:08:26;18.70;;;12.60;;
58978;SDS011;44763;50.464;30.612;2024-01-30T11:10:30;14.80;;;12.10;;
58978;SDS011;44763;50.464;30.612;2024-01-30T11:12:37;18.20;;;13.70;;
58978;SDS011;44763;50.464;30.612;2024-01-30T11:14:46;17.90;;;13.90;;
58978;SDS011;44763;50.464;30.612;2024-01-30T11:16:48;19.20;;;13.80;;
58978;SDS011;44763;50.464;30.612;2024-01-30T11:18:50;16.80;;;12.30;;
58978;SDS011;44763;50.464;30.612;2024-01-30T11:20:56;14.10;;;12.50;;
58978;SDS011;44763;50.464;30.612;2024-01-30T11:22:59;17.60;;;12.40;;
58978;SDS011;44763;50.464;30.612;2024-01-30T11:25:10;15.00;;;12.30;;
58978;SDS011;44763;50.464;30.612;2024-01-30T11:27:14;15.10;;;12.30;;
58978;SDS011;44763;50.464;30.612;2024-01-30T11:29:17;16.80;;;13.00;;
58978;SDS011;44763;50.464;30.612;2024-01-30T11:31:19;14.20;;;11.20;;
58978;SDS011;44763;50.464;30.612;2024-01-30T11:33:28;16.70;;;13.00;;
58978;SDS011;44763;50.464;30.612;2024-01-30T11:35:36;20.00;;;13.20;;
58978;SDS011;44763;50.464;30.612;2024-01-30T11:37:41;19.90;;;14.00;;
58978;SDS011;44763;50.464;30.612;2024-01-30T11:39:44;14.30;;;12.30;;
58978;SDS011;44763;50.464;30.612;2024-01-30T11:41:49;16.50;;;11.70;;
58978;SDS011;44763;50.464;30.612;2024-01-30T11:43:54;12.10;;;9.90;;
58978;SDS011;44763;50.464;30.612;2024-01-30T11:45:55;14.30;;;11.00;;
58978;SDS011;44763;50.464;30.612;2024-01-30T11:47:58;15.80;;;12.40;;
58978;SDS011;44763;50.464;30.612;2024-01-30T11:50:04;20.50;;;13.70;;